Bay Bridge — 3FCS5 — position and weather

sailwx.info

Track history (hours):
 
Tides and Currents Weather Stations Pressure Air Temp Water Temp Dewpoint Dewpoint Depression Visibility Wind Speed Wind Dir Waves Ship Positions

Bay Bridge

Last reported at 2016-May-24 16:26 UTC. Time now 2016-May-26 08:52 UTC.
Position N 34°29' E 138°05'.

Length 267 m; draft 10.2 m.

Type: Ship (hazmat cat A). MMSI: 354120000.

Date/timePositionNaut miles runAvg speedWind from/ knotsBaromVisibWave heightAir tempDewpointWater temp
2016-May-24 16:26N 34°29' E 138°05'1517.3
2016-May-24 15:33N 34°29' E 138°23'3819.2
2016-May-24 13:33N 34°33' E 139°10'1918.9
2016-May-24 12:33N 34°42' E 139°30'1919.1
2016-May-24 11:33N 34°59' E 139°39'1615.9
2016-May-24 10:33N 35°14' E 139°46'1212.5
2016-May-24 09:33N 35°26' E 139°42'2 1.7
2016-May-24 08:33N 35°27' E 139°40'0 0.0
2016-May-24 07:33N 35°27' E 139°40'0 0.0
2016-May-24 06:33N 35°27' E 139°40'0 0.0
2016-May-24 05:33N 35°27' E 139°40'0 0.0
2016-May-24 04:33N 35°27' E 139°40'0 0.0
2016-May-24 03:33N 35°27' E 139°40'0 0.0
2016-May-24 02:33N 35°27' E 139°40'0 0.0
2016-May-24 01:33N 35°27' E 139°40'0 0.0
2016-May-24 00:33N 35°27' E 139°40'0 0.0
2016-May-23 23:33N 35°27' E 139°40'0 0.0
2016-May-23 22:33N 35°27' E 139°40'1 1.2
2016-May-23 21:33N 35°27' E 139°42'9 9.5
2016-May-23 20:34N 35°34' E 139°49'4 3.5
2016-May-23 19:31N 35°37' E 139°46'0 0.0
2016-May-23 18:31N 35°37' E 139°46'0 0.0
2016-May-23 17:31N 35°37' E 139°46'0 0.0
2016-May-23 16:31N 35°37' E 139°46'0 0.0
2016-May-23 15:31N 35°37' E 139°46'0 0.0
2016-May-23 14:31N 35°37' E 139°46'0 0.0
2016-May-23 13:31N 35°37' E 139°46'0 0.0
2016-May-23 12:31N 35°37' E 139°46'0 0.0
2016-May-23 11:31N 35°37' E 139°46'0 0.0
2016-May-23 10:31N 35°37' E 139°46'1 1.2
2016-May-23 09:33N 35°36' E 139°47'7 6.7
2016-May-23 08:33N 35°31' E 139°53'1212.0
2016-May-23 07:33N 35°21' E 139°45'1111.4
2016-May-23 06:33N 35°10' E 139°47'1212.3
2016-May-23 05:33N 34°58' E 139°42'1312.1
2016-May-23 04:31N 34°48' E 139°51'1110.9
2016-May-23 03:33N 34°50' E 140°04'1110.7
2016-May-23 02:34N 34°55' E 140°15'1110.0
2016-May-23 01:30N 35°01' E 140°26'9 9.7
2016-May-23 00:33N 35°05' E 140°36'9 9.3
2016-May-22 23:33N 35°10' E 140°46'9 9.4
2016-May-22 22:33N 35°15' E 140°55'9 9.4
2016-May-22 21:33N 35°20' E 141°05'9 9.0
2016-May-22 20:34N 35°24' E 141°15'9 9.0
2016-May-22 19:33N 35°29' E 141°24'8 8.5
2016-May-22 18:34N 35°33' E 141°33'8 8.0
2016-May-22 17:33N 35°37' E 141°42'8 7.7
2016-May-22 16:33N 35°41' E 141°50'8 7.7
2016-May-22 15:33N 35°45' E 141°58'8 8.3
2016-May-22 14:33N 35°50' E 142°07'9 9.0
2016-May-22 13:33N 35°54' E 142°16'10 9.6
2016-May-22 12:33N 35°59' E 142°27'1111.1
2016-May-22 11:33N 36°05' E 142°38'1211.9
2016-May-22 10:33N 36°11' E 142°51'1211.6
2016-May-22 09:33N 36°17' E 143°03'1111.1
2016-May-22 08:34N 36°23' E 143°15'1111.2
2016-May-22 07:33N 36°28' E 143°27'  
Track history (hours):
 
Tides and Currents Weather Stations Pressure Air Temp Water Temp Dewpoint Dewpoint Depression Visibility Wind Speed Wind Dir Waves Ship Positions

Bay Bridge

Last reported at 2016-May-24 16:26 UTC. Time now 2016-May-26 08:52 UTC.
Position N 34°29' E 138°05'.

Length 267 m; draft 10.2 m.

Type: Ship (hazmat cat A). MMSI: 354120000.

Date/timePositionNaut miles runAvg speedWind from/ knotsBaromVisibWave heightAir tempDewpointWater temp
2016-May-24 16:26N 34°29' E 138°05'1517.3
2016-May-24 15:33N 34°29' E 138°23'3819.2
2016-May-24 13:33N 34°33' E 139°10'1918.9
2016-May-24 12:33N 34°42' E 139°30'1919.1
2016-May-24 11:33N 34°59' E 139°39'1615.9
2016-May-24 10:33N 35°14' E 139°46'1212.5
2016-May-24 09:33N 35°26' E 139°42'2 1.7
2016-May-24 08:33N 35°27' E 139°40'0 0.0
2016-May-24 07:33N 35°27' E 139°40'0 0.0
2016-May-24 06:33N 35°27' E 139°40'0 0.0
2016-May-24 05:33N 35°27' E 139°40'0 0.0
2016-May-24 04:33N 35°27' E 139°40'0 0.0
2016-May-24 03:33N 35°27' E 139°40'0 0.0
2016-May-24 02:33N 35°27' E 139°40'0 0.0
2016-May-24 01:33N 35°27' E 139°40'0 0.0
2016-May-24 00:33N 35°27' E 139°40'0 0.0
2016-May-23 23:33N 35°27' E 139°40'0 0.0
2016-May-23 22:33N 35°27' E 139°40'1 1.2
2016-May-23 21:33N 35°27' E 139°42'9 9.5
2016-May-23 20:34N 35°34' E 139°49'4 3.5
2016-May-23 19:31N 35°37' E 139°46'0 0.0
2016-May-23 18:31N 35°37' E 139°46'0 0.0
2016-May-23 17:31N 35°37' E 139°46'0 0.0
2016-May-23 16:31N 35°37' E 139°46'0 0.0
2016-May-23 15:31N 35°37' E 139°46'0 0.0
2016-May-23 14:31N 35°37' E 139°46'0 0.0
2016-May-23 13:31N 35°37' E 139°46'0 0.0
2016-May-23 12:31N 35°37' E 139°46'0 0.0
2016-May-23 11:31N 35°37' E 139°46'0 0.0
2016-May-23 10:31N 35°37' E 139°46'1 1.2
2016-May-23 09:33N 35°36' E 139°47'7 6.7
2016-May-23 08:33N 35°31' E 139°53'1212.0
2016-May-23 07:33N 35°21' E 139°45'1111.4
2016-May-23 06:33N 35°10' E 139°47'1212.3
2016-May-23 05:33N 34°58' E 139°42'1312.1
2016-May-23 04:31N 34°48' E 139°51'1110.9
2016-May-23 03:33N 34°50' E 140°04'1110.7
2016-May-23 02:34N 34°55' E 140°15'1110.0
2016-May-23 01:30N 35°01' E 140°26'9 9.7
2016-May-23 00:33N 35°05' E 140°36'9 9.3
2016-May-22 23:33N 35°10' E 140°46'9 9.4
2016-May-22 22:33N 35°15' E 140°55'9 9.4
2016-May-22 21:33N 35°20' E 141°05'9 9.0
2016-May-22 20:34N 35°24' E 141°15'9 9.0
2016-May-22 19:33N 35°29' E 141°24'8 8.5
2016-May-22 18:34N 35°33' E 141°33'8 8.0
2016-May-22 17:33N 35°37' E 141°42'8 7.7
2016-May-22 16:33N 35°41' E 141°50'8 7.7
2016-May-22 15:33N 35°45' E 141°58'8 8.3
2016-May-22 14:33N 35°50' E 142°07'9 9.0
2016-May-22 13:33N 35°54' E 142°16'10 9.6
2016-May-22 12:33N 35°59' E 142°27'1111.1
2016-May-22 11:33N 36°05' E 142°38'1211.9
2016-May-22 10:33N 36°11' E 142°51'1211.6
2016-May-22 09:33N 36°17' E 143°03'1111.1
2016-May-22 08:34N 36°23' E 143°15'1111.2
2016-May-22 07:33N 36°28' E 143°27'  

Dump ship's entire track history